sensor_id;sensor_type;location;lat;lon;timestamp;temperature;humidity
42913;DHT22;50720;54.324;18.558;2022-12-18T00:00:27;-4.20;99.90
42913;DHT22;50720;54.324;18.558;2022-12-18T00:03:18;-4.20;99.90
42913;DHT22;50720;54.324;18.558;2022-12-18T00:05:48;-4.30;99.90
42913;DHT22;50720;54.324;18.558;2022-12-18T00:08:18;-4.30;99.90
42913;DHT22;50720;54.324;18.558;2022-12-18T00:10:47;-4.40;99.90
42913;DHT22;50720;54.324;18.558;2022-12-18T00:13:19;-4.40;99.90
42913;DHT22;50720;54.324;18.558;2022-12-18T00:15:49;-4.50;99.90
42913;DHT22;50720;54.324;18.558;2022-12-18T00:18:25;-4.50;99.90
42913;DHT22;50720;54.324;18.558;2022-12-18T00:20:57;-4.50;99.90
42913;DHT22;50720;54.324;18.558;2022-12-18T00:23:28;-4.60;99.90
42913;DHT22;50720;54.324;18.558;2022-12-18T00:25:59;-4.70;99.90
42913;DHT22;50720;54.324;18.558;2022-12-18T00:28:29;-4.80;99.90
42913;DHT22;50720;54.324;18.558;2022-12-18T00:31:02;-4.90;99.90
42913;DHT22;50720;54.324;18.558;2022-12-18T00:33:34;-4.90;99.90
42913;DHT22;50720;54.324;18.558;2022-12-18T00:36:05;-4.90;99.90
42913;DHT22;50720;54.324;18.558;2022-12-18T00:38:35;-4.90;99.90
42913;DHT22;50720;54.324;18.558;2022-12-18T00:41:05;-4.90;99.90
42913;DHT22;50720;54.324;18.558;2022-12-18T00:43:35;-4.90;99.90
42913;DHT22;50720;54.324;18.558;2022-12-18T00:46:05;-4.90;99.90
42913;DHT22;50720;54.324;18.558;2022-12-18T00:48:38;-4.90;99.90
42913;DHT22;50720;54.324;18.558;2022-12-18T00:51:07;-4.90;99.90
42913;DHT22;50720;54.324;18.558;2022-12-18T00:53:37;-4.90;99.90
42913;DHT22;50720;54.324;18.558;2022-12-18T00:56:07;-4.90;99.90
42913;DHT22;50720;54.324;18.558;2022-12-18T00:58:37;-4.90;99.90
42913;DHT22;50720;54.324;18.558;2022-12-18T01:01:07;-4.90;99.90
42913;DHT22;50720;54.324;18.558;2022-12-18T01:03:38;-4.90;99.90
42913;DHT22;50720;54.324;18.558;2022-12-18T01:06:10;-4.80;99.90
42913;DHT22;50720;54.324;18.558;2022-12-18T01:08:41;-4.80;99.90
42913;DHT22;50720;54.324;18.558;2022-12-18T01:11:11;-4.80;99.90
42913;DHT22;50720;54.324;18.558;2022-12-18T01:13:41;-4.80;99.90
42913;DHT22;50720;54.324;18.558;2022-12-18T01:16:12;-4.80;99.90
42913;DHT22;50720;54.324;18.558;2022-12-18T01:18:43;-4.70;99.90
42913;DHT22;50720;54.324;18.558;2022-12-18T01:21:15;-4.60;99.90
42913;DHT22;50720;54.324;18.558;2022-12-18T01:23:45;-4.60;99.90
42913;DHT22;50720;54.324;18.558;2022-12-18T01:26:16;-4.50;99.90
42913;DHT22;50720;54.324;18.558;2022-12-18T01:28:46;-4.50;99.90
42913;DHT22;50720;54.324;18.558;2022-12-18T01:31:17;-4.40;99.90
42913;DHT22;50720;54.324;18.558;2022-12-18T01:33:51;-4.40;99.90
42913;DHT22;50720;54.324;18.558;2022-12-18T01:36:23;-4.40;99.90
42913;DHT22;50720;54.324;18.558;2022-12-18T01:38:53;-4.30;99.90
42913;DHT22;50720;54.324;18.558;2022-12-18T01:41:26;-4.30;99.90
42913;DHT22;50720;54.324;18.558;2022-12-18T01:47:24;-4.10;99.90
42913;DHT22;50720;54.324;18.558;2022-12-18T01:49:58;-4.00;99.90
42913;DHT22;50720;54.324;18.558;2022-12-18T01:52:29;-3.90;99.90
42913;DHT22;50720;54.324;18.558;2022-12-18T01:55:03;-3.90;99.90
42913;DHT22;50720;54.324;18.558;2022-12-18T01:57:34;-3.70;99.90
42913;DHT22;50720;54.324;18.558;2022-12-18T02:00:07;-3.60;99.90
42913;DHT22;50720;54.324;18.558;2022-12-18T02:02:38;-3.50;99.90
42913;DHT22;50720;54.324;18.558;2022-12-18T02:05:11;-3.50;99.90
42913;DHT22;50720;54.324;18.558;2022-12-18T02:07:47;-3.40;99.90
42913;DHT22;50720;54.324;18.558;2022-12-18T02:10:23;-3.30;99.90
42913;DHT22;50720;54.324;18.558;2022-12-18T02:12:59;-3.20;99.90
42913;DHT22;50720;54.324;18.558;2022-12-18T02:15:38;-3.20;99.90
42913;DHT22;50720;54.324;18.558;2022-12-18T02:18:10;-3.20;99.90
42913;DHT22;50720;54.324;18.558;2022-12-18T02:20:46;-3.20;99.90
42913;DHT22;50720;54.324;18.558;2022-12-18T02:23:28;-3.20;99.90
42913;DHT22;50720;54.324;18.558;2022-12-18T02:26:16;-3.20;99.90
42913;DHT22;50720;54.324;18.558;2022-12-18T02:28:51;-3.10;99.90
42913;DHT22;50720;54.324;18.558;2022-12-18T02:31:26;-3.10;99.90
42913;DHT22;50720;54.324;18.558;2022-12-18T02:34:00;-3.10;99.90
42913;DHT22;50720;54.324;18.558;2022-12-18T02:36:32;-3.10;99.90
42913;DHT22;50720;54.324;18.558;2022-12-18T02:39:04;-3.10;99.90
42913;DHT22;50720;54.324;18.558;2022-12-18T02:41:38;-3.10;99.90
42913;DHT22;50720;54.324;18.558;2022-12-18T02:44:10;-3.10;99.90
42913;DHT22;50720;54.324;18.558;2022-12-18T02:46:41;-3.10;99.90
42913;DHT22;50720;54.324;18.558;2022-12-18T02:49:24;-3.10;99.90
42913;DHT22;50720;54.324;18.558;2022-12-18T02:52:01;-3.10;99.90
42913;DHT22;50720;54.324;18.558;2022-12-18T02:54:44;-3.10;99.90
42913;DHT22;50720;54.324;18.558;2022-12-18T02:57:24;-3.10;99.90
42913;DHT22;50720;54.324;18.558;2022-12-18T03:00:01;-3.10;99.90
42913;DHT22;50720;54.324;18.558;2022-12-18T03:02:37;-3.10;99.90
42913;DHT22;50720;54.324;18.558;2022-12-18T03:05:13;-3.10;99.90
42913;DHT22;50720;54.324;18.558;2022-12-18T03:07:47;-3.10;99.90
42913;DHT22;50720;54.324;18.558;2022-12-18T03:10:23;-3.20;99.90
42913;DHT22;50720;54.324;18.558;2022-12-18T03:13:00;-3.10;99.90
42913;DHT22;50720;54.324;18.558;2022-12-18T03:15:35;-3.20;99.90
42913;DHT22;50720;54.324;18.558;2022-12-18T03:18:08;-3.10;99.90
42913;DHT22;50720;54.324;18.558;2022-12-18T03:20:42;-3.20;99.90
42913;DHT22;50720;54.324;18.558;2022-12-18T03:23:16;-3.20;99.90
42913;DHT22;50720;54.324;18.558;2022-12-18T03:25:54;-3.10;99.90
42913;DHT22;50720;54.324;18.558;2022-12-18T03:28:34;-3.10;99.90
42913;DHT22;50720;54.324;18.558;2022-12-18T03:31:07;-3.20;99.90
42913;DHT22;50720;54.324;18.558;2022-12-18T03:33:41;-3.20;99.90
42913;DHT22;50720;54.324;18.558;2022-12-18T03:36:13;-3.10;99.90
42913;DHT22;50720;54.324;18.558;2022-12-18T03:38:43;-3.10;99.90
42913;DHT22;50720;54.324;18.558;2022-12-18T03:41:16;-3.10;99.90
42913;DHT22;50720;54.324;18.558;2022-12-18T03:43:54;-3.10;99.90
42913;DHT22;50720;54.324;18.558;2022-12-18T03:46:30;-3.20;99.90
42913;DHT22;50720;54.324;18.558;2022-12-18T03:49:02;-3.20;99.90
42913;DHT22;50720;54.324;18.558;2022-12-18T03:51:39;-3.20;99.90
42913;DHT22;50720;54.324;18.558;2022-12-18T03:54:11;-3.20;99.90
42913;DHT22;50720;54.324;18.558;2022-12-18T03:56:44;-3.20;99.90
42913;DHT22;50720;54.324;18.558;2022-12-18T03:59:17;-3.20;99.90
42913;DHT22;50720;54.324;18.558;2022-12-18T04:01:49;-3.20;99.90
42913;DHT22;50720;54.324;18.558;2022-12-18T04:04:21;-3.20;99.90
42913;DHT22;50720;54.324;18.558;2022-12-18T04:06:53;-3.30;99.90
42913;DHT22;50720;54.324;18.558;2022-12-18T04:09:24;-3.30;99.90
42913;DHT22;50720;54.324;18.558;2022-12-18T04:11:54;-3.30;99.90
42913;DHT22;50720;54.324;18.558;2022-12-18T04:14:25;-3.30;99.90
42913;DHT22;50720;54.324;18.558;2022-12-18T04:16:55;-3.30;99.90
42913;DHT22;50720;54.324;18.558;2022-12-18T04:19:25;-3.30;99.90
42913;DHT22;50720;54.324;18.558;2022-12-18T04:21:54;-3.30;99.90
42913;DHT22;50720;54.324;18.558;2022-12-18T04:24:24;-3.40;99.90
42913;DHT22;50720;54.324;18.558;2022-12-18T04:26:53;-3.40;99.90
42913;DHT22;50720;54.324;18.558;2022-12-18T04:29:25;-3.40;99.90
42913;DHT22;50720;54.324;18.558;2022-12-18T04:31:54;-3.50;99.90
42913;DHT22;50720;54.324;18.558;2022-12-18T04:34:24;-3.50;99.90
42913;DHT22;50720;54.324;18.558;2022-12-18T04:36:53;-3.50;99.90
42913;DHT22;50720;54.324;18.558;2022-12-18T04:39:24;-3.50;99.90
42913;DHT22;50720;54.324;18.558;2022-12-18T04:41:53;-3.50;99.90
42913;DHT22;50720;54.324;18.558;2022-12-18T04:44:25;-3.50;99.90
42913;DHT22;50720;54.324;18.558;2022-12-18T04:46:55;-3.50;99.90
42913;DHT22;50720;54.324;18.558;2022-12-18T04:49:25;-3.50;99.90
42913;DHT22;50720;54.324;18.558;2022-12-18T04:51:55;-3.50;99.90
42913;DHT22;50720;54.324;18.558;2022-12-18T04:54:24;-3.60;99.90
42913;DHT22;50720;54.324;18.558;2022-12-18T04:56:54;-3.60;99.90
42913;DHT22;50720;54.324;18.558;2022-12-18T04:59:25;-3.60;99.90
42913;DHT22;50720;54.324;18.558;2022-12-18T05:01:54;-3.60;99.90
42913;DHT22;50720;54.324;18.558;2022-12-18T05:04:24;-3.50;99.90
42913;DHT22;50720;54.324;18.558;2022-12-18T05:06:53;-3.60;99.90
42913;DHT22;50720;54.324;18.558;2022-12-18T05:09:23;-3.60;99.90
42913;DHT22;50720;54.324;18.558;2022-12-18T05:11:53;-3.60;99.90
42913;DHT22;50720;54.324;18.558;2022-12-18T05:14:22;-3.60;99.90
42913;DHT22;50720;54.324;18.558;2022-12-18T05:16:53;-3.60;99.90
42913;DHT22;50720;54.324;18.558;2022-12-18T05:19:27;-3.60;99.90
42913;DHT22;50720;54.324;18.558;2022-12-18T05:21:57;-3.60;99.90
42913;DHT22;50720;54.324;18.558;2022-12-18T05:24:27;-3.50;99.90
42913;DHT22;50720;54.324;18.558;2022-12-18T05:26:56;-3.50;99.90
42913;DHT22;50720;54.324;18.558;2022-12-18T05:29:26;-3.60;99.90
42913;DHT22;50720;54.324;18.558;2022-12-18T05:31:57;-3.60;99.90
42913;DHT22;50720;54.324;18.558;2022-12-18T05:34:26;-3.60;99.90
42913;DHT22;50720;54.324;18.558;2022-12-18T05:36:56;-3.60;99.90
42913;DHT22;50720;54.324;18.558;2022-12-18T05:39:26;-3.60;99.90
42913;DHT22;50720;54.324;18.558;2022-12-18T05:41:55;-3.60;99.90
42913;DHT22;50720;54.324;18.558;2022-12-18T05:44:25;-3.60;99.90
42913;DHT22;50720;54.324;18.558;2022-12-18T05:46:56;-3.60;99.90
42913;DHT22;50720;54.324;18.558;2022-12-18T05:49:26;-3.60;99.90
42913;DHT22;50720;54.324;18.558;2022-12-18T05:51:56;-3.60;99.90
42913;DHT22;50720;54.324;18.558;2022-12-18T05:54:27;-3.60;99.90
42913;DHT22;50720;54.324;18.558;2022-12-18T05:56:56;-3.60;99.90
42913;DHT22;50720;54.324;18.558;2022-12-18T05:59:26;-3.60;99.90
42913;DHT22;50720;54.324;18.558;2022-12-18T06:01:57;-3.60;99.90
42913;DHT22;50720;54.324;18.558;2022-12-18T06:04:27;-3.60;99.90
42913;DHT22;50720;54.324;18.558;2022-12-18T06:06:57;-3.60;99.90
42913;DHT22;50720;54.324;18.558;2022-12-18T06:09:28;-3.60;99.90
42913;DHT22;50720;54.324;18.558;2022-12-18T06:11:57;-3.60;99.90
42913;DHT22;50720;54.324;18.558;2022-12-18T06:14:28;-3.60;99.90
42913;DHT22;50720;54.324;18.558;2022-12-18T06:16:59;-3.70;99.90
42913;DHT22;50720;54.324;18.558;2022-12-18T06:19:28;-3.60;99.90
42913;DHT22;50720;54.324;18.558;2022-12-18T06:21:58;-3.60;99.90
42913;DHT22;50720;54.324;18.558;2022-12-18T06:24:28;-3.70;99.90
42913;DHT22;50720;54.324;18.558;2022-12-18T06:26:57;-3.80;99.90
42913;DHT22;50720;54.324;18.558;2022-12-18T06:29:27;-3.70;99.90
42913;DHT22;50720;54.324;18.558;2022-12-18T06:31:58;-3.70;99.90
42913;DHT22;50720;54.324;18.558;2022-12-18T06:34:27;-3.70;99.90
42913;DHT22;50720;54.324;18.558;2022-12-18T06:36:57;-3.70;99.90
42913;DHT22;50720;54.324;18.558;2022-12-18T06:39:27;-3.70;99.90
42913;DHT22;50720;54.324;18.558;2022-12-18T06:41:57;-3.70;99.90
42913;DHT22;50720;54.324;18.558;2022-12-18T06:44:26;-3.80;99.90
42913;DHT22;50720;54.324;18.558;2022-12-18T06:46:57;-3.80;99.90
42913;DHT22;50720;54.324;18.558;2022-12-18T06:49:27;-3.80;99.90
42913;DHT22;50720;54.324;18.558;2022-12-18T06:51:57;-3.70;99.90
42913;DHT22;50720;54.324;18.558;2022-12-18T06:54:27;-3.80;99.90
42913;DHT22;50720;54.324;18.558;2022-12-18T06:56:57;-3.80;99.90
42913;DHT22;50720;54.324;18.558;2022-12-18T06:59:26;-3.80;99.90
42913;DHT22;50720;54.324;18.558;2022-12-18T07:01:57;-3.80;99.90
42913;DHT22;50720;54.324;18.558;2022-12-18T07:04:28;-3.80;99.90
42913;DHT22;50720;54.324;18.558;2022-12-18T07:06:58;-3.80;99.90
42913;DHT22;50720;54.324;18.558;2022-12-18T07:09:27;-3.80;99.90
42913;DHT22;50720;54.324;18.558;2022-12-18T07:11:57;-3.90;99.90
42913;DHT22;50720;54.324;18.558;2022-12-18T07:14:26;-3.80;99.90
42913;DHT22;50720;54.324;18.558;2022-12-18T07:16:58;-3.80;99.90
42913;DHT22;50720;54.324;18.558;2022-12-18T07:19:29;-3.80;99.90
42913;DHT22;50720;54.324;18.558;2022-12-18T07:21:58;-3.80;99.90
42913;DHT22;50720;54.324;18.558;2022-12-18T07:24:28;-3.70;99.90
42913;DHT22;50720;54.324;18.558;2022-12-18T07:26:58;-3.70;99.90
42913;DHT22;50720;54.324;18.558;2022-12-18T07:29:27;-3.70;99.90
42913;DHT22;50720;54.324;18.558;2022-12-18T07:31:58;-3.70;99.90
42913;DHT22;50720;54.324;18.558;2022-12-18T07:34:28;-3.70;99.90
42913;DHT22;50720;54.324;18.558;2022-12-18T07:36:57;-3.60;99.90
42913;DHT22;50720;54.324;18.558;2022-12-18T07:39:27;-3.70;99.90
42913;DHT22;50720;54.324;18.558;2022-12-18T07:41:57;-3.60;99.90
42913;DHT22;50720;54.324;18.558;2022-12-18T07:44:44;-3.60;99.90
42913;DHT22;50720;54.324;18.558;2022-12-18T07:47:15;-3.50;99.90
42913;DHT22;50720;54.324;18.558;2022-12-18T07:49:45;-3.50;99.90
42913;DHT22;50720;54.324;18.558;2022-12-18T07:52:14;-3.40;99.90
42913;DHT22;50720;54.324;18.558;2022-12-18T07:54:51;-3.30;99.90
42913;DHT22;50720;54.324;18.558;2022-12-18T07:57:20;-3.20;99.90
42913;DHT22;50720;54.324;18.558;2022-12-18T08:00:11;-3.30;99.90
42913;DHT22;50720;54.324;18.558;2022-12-18T08:02:42;-3.20;99.90
42913;DHT22;50720;54.324;18.558;2022-12-18T08:05:12;-3.10;99.90
42913;DHT22;50720;54.324;18.558;2022-12-18T08:07:42;-3.10;99.90
42913;DHT22;50720;54.324;18.558;2022-12-18T08:10:12;-3.00;99.90
42913;DHT22;50720;54.324;18.558;2022-12-18T08:12:41;-3.00;99.90
42913;DHT22;50720;54.324;18.558;2022-12-18T08:15:11;-3.00;99.90
42913;DHT22;50720;54.324;18.558;2022-12-18T08:17:43;-2.90;99.90
42913;DHT22;50720;54.324;18.558;2022-12-18T08:20:13;-2.80;99.90
42913;DHT22;50720;54.324;18.558;2022-12-18T08:22:43;-2.80;99.90
42913;DHT22;50720;54.324;18.558;2022-12-18T08:25:13;-2.70;99.90
42913;DHT22;50720;54.324;18.558;2022-12-18T08:27:42;-2.60;99.90
42913;DHT22;50720;54.324;18.558;2022-12-18T08:30:13;-2.60;99.90
42913;DHT22;50720;54.324;18.558;2022-12-18T08:32:44;-2.60;99.90
42913;DHT22;50720;54.324;18.558;2022-12-18T08:35:14;-2.50;99.90
42913;DHT22;50720;54.324;18.558;2022-12-18T08:37:45;-2.40;99.90
42913;DHT22;50720;54.324;18.558;2022-12-18T08:40:15;-2.40;99.90
42913;DHT22;50720;54.324;18.558;2022-12-18T08:42:44;-2.40;99.90
42913;DHT22;50720;54.324;18.558;2022-12-18T08:45:31;-2.30;99.90
42913;DHT22;50720;54.324;18.558;2022-12-18T08:48:02;-2.30;99.90
42913;DHT22;50720;54.324;18.558;2022-12-18T08:50:31;-2.20;99.90
42913;DHT22;50720;54.324;18.558;2022-12-18T08:53:01;-2.20;99.90
42913;DHT22;50720;54.324;18.558;2022-12-18T08:55:31;-2.20;99.90
42913;DHT22;50720;54.324;18.558;2022-12-18T08:58:00;-2.10;99.90
42913;DHT22;50720;54.324;18.558;2022-12-18T09:00:29;-2.10;99.90
42913;DHT22;50720;54.324;18.558;2022-12-18T09:03:00;-2.10;99.90
42913;DHT22;50720;54.324;18.558;2022-12-18T09:05:31;-2.10;99.90
42913;DHT22;50720;54.324;18.558;2022-12-18T09:08:00;-2.00;99.90
42913;DHT22;50720;54.324;18.558;2022-12-18T09:10:30;-1.90;99.90
42913;DHT22;50720;54.324;18.558;2022-12-18T09:13:02;-2.00;99.90
42913;DHT22;50720;54.324;18.558;2022-12-18T09:15:32;-1.90;99.90
42913;DHT22;50720;54.324;18.558;2022-12-18T09:18:04;-1.90;99.90
42913;DHT22;50720;54.324;18.558;2022-12-18T09:20:34;-1.80;99.90
42913;DHT22;50720;54.324;18.558;2022-12-18T09:23:04;-1.90;99.90
42913;DHT22;50720;54.324;18.558;2022-12-18T09:25:34;-1.80;99.90
42913;DHT22;50720;54.324;18.558;2022-12-18T09:28:05;-1.80;99.90
42913;DHT22;50720;54.324;18.558;2022-12-18T09:30:37;-1.80;99.90
42913;DHT22;50720;54.324;18.558;2022-12-18T09:33:08;-1.80;99.90
42913;DHT22;50720;54.324;18.558;2022-12-18T09:35:39;-1.70;99.90
42913;DHT22;50720;54.324;18.558;2022-12-18T09:38:11;-1.60;99.90
42913;DHT22;50720;54.324;18.558;2022-12-18T09:40:43;-1.70;99.90
42913;DHT22;50720;54.324;18.558;2022-12-18T09:43:17;-1.60;99.90
42913;DHT22;50720;54.324;18.558;2022-12-18T09:45:51;-1.60;99.90
42913;DHT22;50720;54.324;18.558;2022-12-18T09:48:27;-1.60;99.90
42913;DHT22;50720;54.324;18.558;2022-12-18T09:51:02;-1.60;99.90
42913;DHT22;50720;54.324;18.558;2022-12-18T09:53:35;-1.60;99.90
42913;DHT22;50720;54.324;18.558;2022-12-18T09:56:10;-1.50;99.90
42913;DHT22;50720;54.324;18.558;2022-12-18T09:58:45;-1.60;99.90
42913;DHT22;50720;54.324;18.558;2022-12-18T10:01:21;-1.50;99.90
42913;DHT22;50720;54.324;18.558;2022-12-18T10:04:01;-1.50;99.90
42913;DHT22;50720;54.324;18.558;2022-12-18T10:06:37;-1.40;99.90
42913;DHT22;50720;54.324;18.558;2022-12-18T10:09:15;-1.30;99.90
42913;DHT22;50720;54.324;18.558;2022-12-18T10:11:53;-1.30;99.90
42913;DHT22;50720;54.324;18.558;2022-12-18T10:14:30;-1.20;99.90
42913;DHT22;50720;54.324;18.558;2022-12-18T10:17:13;-1.10;99.90
42913;DHT22;50720;54.324;18.558;2022-12-18T10:19:51;-1.00;99.90
42913;DHT22;50720;54.324;18.558;2022-12-18T10:22:29;-1.00;99.90
42913;DHT22;50720;54.324;18.558;2022-12-18T10:25:03;-1.00;99.90
42913;DHT22;50720;54.324;18.558;2022-12-18T10:27:34;-1.00;99.90
42913;DHT22;50720;54.324;18.558;2022-12-18T10:30:12;-0.90;99.90
42913;DHT22;50720;54.324;18.558;2022-12-18T10:32:43;-0.90;99.90
42913;DHT22;50720;54.324;18.558;2022-12-18T10:35:18;-0.80;99.90
42913;DHT22;50720;54.324;18.558;2022-12-18T10:38:07;-0.80;99.90
42913;DHT22;50720;54.324;18.558;2022-12-18T10:40:51;-0.80;99.90
42913;DHT22;50720;54.324;18.558;2022-12-18T10:43:24;-0.80;99.90
42913;DHT22;50720;54.324;18.558;2022-12-18T10:46:12;-0.70;99.90
42913;DHT22;50720;54.324;18.558;2022-12-18T10:48:54;-0.70;99.90
42913;DHT22;50720;54.324;18.558;2022-12-18T10:51:29;-0.70;99.90
42913;DHT22;50720;54.324;18.558;2022-12-18T10:54:03;-0.60;99.90
42913;DHT22;50720;54.324;18.558;2022-12-18T10:56:35;-0.60;99.90
42913;DHT22;50720;54.324;18.558;2022-12-18T10:59:07;-0.50;99.90
42913;DHT22;50720;54.324;18.558;2022-12-18T11:01:49;-0.50;99.90
42913;DHT22;50720;54.324;18.558;2022-12-18T11:04:22;-0.50;99.90
42913;DHT22;50720;54.324;18.558;2022-12-18T11:06:58;-0.50;99.90
42913;DHT22;50720;54.324;18.558;2022-12-18T11:09:29;-0.40;99.90
42913;DHT22;50720;54.324;18.558;2022-12-18T11:12:01;-0.30;99.90
42913;DHT22;50720;54.324;18.558;2022-12-18T11:14:34;0.10;99.90
42913;DHT22;50720;54.324;18.558;2022-12-18T11:17:19;0.50;99.90
42913;DHT22;50720;54.324;18.558;2022-12-18T11:19:55;1.40;99.90
42913;DHT22;50720;54.324;18.558;2022-12-18T11:22:28;2.40;99.90
42913;DHT22;50720;54.324;18.558;2022-12-18T11:25:00;3.30;99.90
42913;DHT22;50720;54.324;18.558;2022-12-18T11:27:51;3.80;99.90
42913;DHT22;50720;54.324;18.558;2022-12-18T11:30:23;4.20;99.90
42913;DHT22;50720;54.324;18.558;2022-12-18T11:33:02;4.40;99.90
42913;DHT22;50720;54.324;18.558;2022-12-18T11:35:42;4.70;99.90
42913;DHT22;50720;54.324;18.558;2022-12-18T11:38:20;4.10;99.90
42913;DHT22;50720;54.324;18.558;2022-12-18T11:40:56;4.20;99.90
42913;DHT22;50720;54.324;18.558;2022-12-18T11:43:29;4.10;99.90
42913;DHT22;50720;54.324;18.558;2022-12-18T11:46:05;4.00;99.90
42913;DHT22;50720;54.324;18.558;2022-12-18T11:48:45;4.20;99.90
42913;DHT22;50720;54.324;18.558;2022-12-18T11:51:23;4.10;99.90
42913;DHT22;50720;54.324;18.558;2022-12-18T11:53:56;3.90;99.90
42913;DHT22;50720;54.324;18.558;2022-12-18T11:56:30;3.70;99.90
42913;DHT22;50720;54.324;18.558;2022-12-18T11:59:08;3.90;99.90
42913;DHT22;50720;54.324;18.558;2022-12-18T12:01:48;4.10;99.90
42913;DHT22;50720;54.324;18.558;2022-12-18T12:04:41;3.80;99.90
42913;DHT22;50720;54.324;18.558;2022-12-18T12:07:23;3.10;99.90
42913;DHT22;50720;54.324;18.558;2022-12-18T12:10:03;3.40;99.90
42913;DHT22;50720;54.324;18.558;2022-12-18T12:12:51;3.30;99.90
42913;DHT22;50720;54.324;18.558;2022-12-18T12:15:31;3.80;99.90
42913;DHT22;50720;54.324;18.558;2022-12-18T12:18:12;4.00;99.90
42913;DHT22;50720;54.324;18.558;2022-12-18T12:20:52;4.50;99.90
42913;DHT22;50720;54.324;18.558;2022-12-18T12:23:30;4.70;99.90
42913;DHT22;50720;54.324;18.558;2022-12-18T12:26:07;5.40;99.50
42913;DHT22;50720;54.324;18.558;2022-12-18T12:28:53;5.60;99.30
42913;DHT22;50720;54.324;18.558;2022-12-18T12:31:33;5.50;97.40
42913;DHT22;50720;54.324;18.558;2022-12-18T12:34:15;5.30;97.70
42913;DHT22;50720;54.324;18.558;2022-12-18T12:36:58;4.80;98.30
42913;DHT22;50720;54.324;18.558;2022-12-18T12:39:28;4.40;98.30
42913;DHT22;50720;54.324;18.558;2022-12-18T12:42:02;4.00;98.60
42913;DHT22;50720;54.324;18.558;2022-12-18T12:44:53;3.30;99.70
42913;DHT22;50720;54.324;18.558;2022-12-18T12:47:26;3.00;99.90
42913;DHT22;50720;54.324;18.558;2022-12-18T12:49:59;2.90;99.90
42913;DHT22;50720;54.324;18.558;2022-12-18T12:52:32;2.80;99.90
42913;DHT22;50720;54.324;18.558;2022-12-18T12:55:07;2.90;99.90
42913;DHT22;50720;54.324;18.558;2022-12-18T12:57:48;3.00;99.90
42913;DHT22;50720;54.324;18.558;2022-12-18T13:00:19;3.10;99.90
42913;DHT22;50720;54.324;18.558;2022-12-18T13:02:53;2.60;99.90
42913;DHT22;50720;54.324;18.558;2022-12-18T13:05:29;2.50;99.90
42913;DHT22;50720;54.324;18.558;2022-12-18T13:08:03;2.20;99.90
42913;DHT22;50720;54.324;18.558;2022-12-18T13:10:36;2.10;99.90
42913;DHT22;50720;54.324;18.558;2022-12-18T13:13:09;2.10;99.90
42913;DHT22;50720;54.324;18.558;2022-12-18T13:15:39;2.10;99.90
42913;DHT22;50720;54.324;18.558;2022-12-18T13:18:15;1.90;99.90
42913;DHT22;50720;54.324;18.558;2022-12-18T13:20:47;2.10;99.90
42913;DHT22;50720;54.324;18.558;2022-12-18T13:23:31;2.40;99.90
42913;DHT22;50720;54.324;18.558;2022-12-18T13:26:32;2.40;99.90
42913;DHT22;50720;54.324;18.558;2022-12-18T13:29:04;1.90;99.90
42913;DHT22;50720;54.324;18.558;2022-12-18T13:32:18;1.50;99.90
42913;DHT22;50720;54.324;18.558;2022-12-18T13:38:21;0.60;99.90
42913;DHT22;50720;54.324;18.558;2022-12-18T13:40:56;0.10;99.90
42913;DHT22;50720;54.324;18.558;2022-12-18T13:43:38;-0.10;99.90
42913;DHT22;50720;54.324;18.558;2022-12-18T13:46:24;-0.40;99.90
42913;DHT22;50720;54.324;18.558;2022-12-18T13:49:00;-0.70;99.90
42913;DHT22;50720;54.324;18.558;2022-12-18T13:51:34;-0.90;99.90
42913;DHT22;50720;54.324;18.558;2022-12-18T13:54:15;-1.00;99.90
42913;DHT22;50720;54.324;18.558;2022-12-18T13:56:48;-1.10;99.90
42913;DHT22;50720;54.324;18.558;2022-12-18T13:59:20;-1.20;99.90
42913;DHT22;50720;54.324;18.558;2022-12-18T14:01:55;-1.30;99.90
42913;DHT22;50720;54.324;18.558;2022-12-18T14:04:27;-1.40;99.90
42913;DHT22;50720;54.324;18.558;2022-12-18T14:07:01;-1.40;99.90
42913;DHT22;50720;54.324;18.558;2022-12-18T14:09:36;-1.50;99.90
42913;DHT22;50720;54.324;18.558;2022-12-18T14:12:11;-1.50;99.90
42913;DHT22;50720;54.324;18.558;2022-12-18T14:15:02;-1.60;99.90
42913;DHT22;50720;54.324;18.558;2022-12-18T14:17:34;-1.50;99.90
42913;DHT22;50720;54.324;18.558;2022-12-18T14:20:13;-1.60;99.90
42913;DHT22;50720;54.324;18.558;2022-12-18T14:22:44;-1.60;99.90
42913;DHT22;50720;54.324;18.558;2022-12-18T14:25:15;-1.60;99.90
42913;DHT22;50720;54.324;18.558;2022-12-18T14:27:46;-1.60;99.90
42913;DHT22;50720;54.324;18.558;2022-12-18T14:30:25;-1.70;99.90
42913;DHT22;50720;54.324;18.558;2022-12-18T14:33:09;-1.70;99.90
42913;DHT22;50720;54.324;18.558;2022-12-18T14:35:41;-1.80;99.90
42913;DHT22;50720;54.324;18.558;2022-12-18T14:38:21;-1.80;99.90
42913;DHT22;50720;54.324;18.558;2022-12-18T14:40:58;-1.80;99.90
42913;DHT22;50720;54.324;18.558;2022-12-18T14:43:28;-1.90;99.90
42913;DHT22;50720;54.324;18.558;2022-12-18T14:45:58;-1.90;99.90
42913;DHT22;50720;54.324;18.558;2022-12-18T14:48:37;-1.90;99.90
42913;DHT22;50720;54.324;18.558;2022-12-18T14:51:16;-2.00;99.90
42913;DHT22;50720;54.324;18.558;2022-12-18T14:53:47;-2.10;99.90
42913;DHT22;50720;54.324;18.558;2022-12-18T14:56:23;-2.10;99.90
42913;DHT22;50720;54.324;18.558;2022-12-18T14:58:55;-2.20;99.90
42913;DHT22;50720;54.324;18.558;2022-12-18T15:01:30;-2.20;99.90
42913;DHT22;50720;54.324;18.558;2022-12-18T15:04:03;-2.20;99.90
42913;DHT22;50720;54.324;18.558;2022-12-18T15:06:35;-2.20;99.90
42913;DHT22;50720;54.324;18.558;2022-12-18T15:09:22;-2.30;99.90
42913;DHT22;50720;54.324;18.558;2022-12-18T15:11:56;-2.40;99.90
42913;DHT22;50720;54.324;18.558;2022-12-18T15:14:37;-2.40;99.90
42913;DHT22;50720;54.324;18.558;2022-12-18T15:17:16;-2.50;99.90
42913;DHT22;50720;54.324;18.558;2022-12-18T15:19:49;-2.60;99.90
42913;DHT22;50720;54.324;18.558;2022-12-18T15:22:26;-2.50;99.90
42913;DHT22;50720;54.324;18.558;2022-12-18T15:24:57;-2.60;99.90
42913;DHT22;50720;54.324;18.558;2022-12-18T15:27:30;-2.80;99.90
42913;DHT22;50720;54.324;18.558;2022-12-18T15:30:21;-2.90;99.90
42913;DHT22;50720;54.324;18.558;2022-12-18T15:32:51;-2.90;99.90
42913;DHT22;50720;54.324;18.558;2022-12-18T15:35:24;-3.00;99.90
42913;DHT22;50720;54.324;18.558;2022-12-18T15:37:54;-3.00;99.90
42913;DHT22;50720;54.324;18.558;2022-12-18T15:40:24;-3.10;99.90
42913;DHT22;50720;54.324;18.558;2022-12-18T15:42:54;-3.10;99.90
42913;DHT22;50720;54.324;18.558;2022-12-18T15:45:41;-3.20;99.90
42913;DHT22;50720;54.324;18.558;2022-12-18T15:48:19;-3.30;99.90
42913;DHT22;50720;54.324;18.558;2022-12-18T15:50:51;-3.30;99.90
42913;DHT22;50720;54.324;18.558;2022-12-18T15:53:21;-3.30;99.90
42913;DHT22;50720;54.324;18.558;2022-12-18T15:55:52;-3.40;99.90
42913;DHT22;50720;54.324;18.558;2022-12-18T15:58:39;-3.40;99.90
42913;DHT22;50720;54.324;18.558;2022-12-18T16:01:09;-3.40;99.90
42913;DHT22;50720;54.324;18.558;2022-12-18T16:03:40;-3.40;99.90